Terminal Aerodrome Forecast
Issued by NWS Lake Charles, LA

Home | Current Version | Previous Version | Text Only | Print | Product List | Glossary On
Versions: 1 2 3 4 5 6 7 8 9 10 11 12 13 14 15 16 17 18 19 20
000
FTUS44 KLCH 300520
TAFLCH
TAF
KLCH 300520Z 3006/0106 16019G26KT 6SM -SHRA BR VCTS OVC012CB
      TEMPO 3010/3013 VRB20G30KT 1SM +TSRA BKN008CB OVC015
     FM301300 32015G21KT 6SM -SHRA BR OVC025
     FM301500 34012KT P6SM VCSH SCT025 BKN050
     FM301800 31010KT P6SM SCT200
     FM010000 31006KT P6SM SKC=

USA.gov is the U.S. government's official web portal to all federal, state and local government web resources and services.